sensor_id;sensor_type;location;lat;lon;timestamp;P1;durP1;ratioP1;P2;durP2;ratioP2
26540;SDS011;14206;50.202;10.948;2023-01-26T00:01:16;11.20;;;6.85;;
26540;SDS011;14206;50.202;10.948;2023-01-26T00:03:45;10.15;;;6.18;;
26540;SDS011;14206;50.202;10.948;2023-01-26T00:06:13;10.43;;;6.55;;
26540;SDS011;14206;50.202;10.948;2023-01-26T00:08:42;10.95;;;6.78;;
26540;SDS011;14206;50.202;10.948;2023-01-26T00:11:12;10.40;;;6.93;;
26540;SDS011;14206;50.202;10.948;2023-01-26T00:13:41;9.82;;;6.30;;
26540;SDS011;14206;50.202;10.948;2023-01-26T00:16:12;11.38;;;7.07;;
26540;SDS011;14206;50.202;10.948;2023-01-26T00:18:40;10.45;;;7.00;;
26540;SDS011;14206;50.202;10.948;2023-01-26T00:21:10;9.35;;;6.45;;
26540;SDS011;14206;50.202;10.948;2023-01-26T00:23:42;10.75;;;6.45;;
26540;SDS011;14206;50.202;10.948;2023-01-26T00:26:10;10.65;;;6.60;;
26540;SDS011;14206;50.202;10.948;2023-01-26T00:28:39;11.07;;;6.95;;
26540;SDS011;14206;50.202;10.948;2023-01-26T00:31:09;10.65;;;6.68;;
26540;SDS011;14206;50.202;10.948;2023-01-26T00:33:38;13.77;;;7.90;;
26540;SDS011;14206;50.202;10.948;2023-01-26T00:36:06;14.25;;;8.45;;
26540;SDS011;14206;50.202;10.948;2023-01-26T00:38:33;13.35;;;8.05;;
26540;SDS011;14206;50.202;10.948;2023-01-26T00:41:00;12.23;;;7.57;;
26540;SDS011;14206;50.202;10.948;2023-01-26T00:43:27;12.40;;;8.00;;
26540;SDS011;14206;50.202;10.948;2023-01-26T00:45:55;11.30;;;6.95;;
26540;SDS011;14206;50.202;10.948;2023-01-26T00:48:22;12.10;;;7.32;;
26540;SDS011;14206;50.202;10.948;2023-01-26T00:50:50;11.05;;;7.30;;
26540;SDS011;14206;50.202;10.948;2023-01-26T00:53:17;12.57;;;7.93;;
26540;SDS011;14206;50.202;10.948;2023-01-26T00:55:44;12.73;;;7.77;;
26540;SDS011;14206;50.202;10.948;2023-01-26T00:58:11;11.18;;;7.05;;
26540;SDS011;14206;50.202;10.948;2023-01-26T01:00:38;12.05;;;7.50;;
26540;SDS011;14206;50.202;10.948;2023-01-26T01:03:05;14.50;;;8.93;;
26540;SDS011;14206;50.202;10.948;2023-01-26T01:05:32;13.75;;;7.75;;
26540;SDS011;14206;50.202;10.948;2023-01-26T01:07:59;14.30;;;8.88;;
26540;SDS011;14206;50.202;10.948;2023-01-26T01:10:26;15.40;;;9.13;;
26540;SDS011;14206;50.202;10.948;2023-01-26T01:12:53;15.43;;;9.68;;
26540;SDS011;14206;50.202;10.948;2023-01-26T01:15:21;15.63;;;9.80;;
26540;SDS011;14206;50.202;10.948;2023-01-26T01:17:49;15.40;;;9.30;;
26540;SDS011;14206;50.202;10.948;2023-01-26T01:20:16;15.35;;;9.82;;
26540;SDS011;14206;50.202;10.948;2023-01-26T01:22:45;16.00;;;9.98;;
26540;SDS011;14206;50.202;10.948;2023-01-26T01:25:11;15.32;;;9.25;;
26540;SDS011;14206;50.202;10.948;2023-01-26T01:27:40;14.43;;;8.98;;
26540;SDS011;14206;50.202;10.948;2023-01-26T01:30:07;13.60;;;8.73;;
26540;SDS011;14206;50.202;10.948;2023-01-26T01:32:35;14.93;;;9.13;;
26540;SDS011;14206;50.202;10.948;2023-01-26T01:35:05;13.18;;;8.68;;
26540;SDS011;14206;50.202;10.948;2023-01-26T01:37:33;13.77;;;8.55;;
26540;SDS011;14206;50.202;10.948;2023-01-26T01:39:59;14.05;;;8.77;;
26540;SDS011;14206;50.202;10.948;2023-01-26T01:42:26;12.77;;;8.70;;
26540;SDS011;14206;50.202;10.948;2023-01-26T01:47:54;13.50;;;8.80;;
26540;SDS011;14206;50.202;10.948;2023-01-26T01:50:24;14.85;;;8.80;;
26540;SDS011;14206;50.202;10.948;2023-01-26T01:52:52;13.90;;;8.00;;
26540;SDS011;14206;50.202;10.948;2023-01-26T01:55:21;15.98;;;9.88;;
26540;SDS011;14206;50.202;10.948;2023-01-26T01:57:53;13.02;;;8.63;;
26540;SDS011;14206;50.202;10.948;2023-01-26T02:00:24;13.80;;;8.40;;
26540;SDS011;14206;50.202;10.948;2023-01-26T02:06:07;12.73;;;8.05;;
26540;SDS011;14206;50.202;10.948;2023-01-26T02:08:45;12.95;;;7.88;;
26540;SDS011;14206;50.202;10.948;2023-01-26T02:11:19;11.97;;;7.73;;
26540;SDS011;14206;50.202;10.948;2023-01-26T02:13:52;11.50;;;7.75;;
26540;SDS011;14206;50.202;10.948;2023-01-26T02:16:21;12.60;;;8.43;;
26540;SDS011;14206;50.202;10.948;2023-01-26T02:18:48;12.15;;;7.43;;
26540;SDS011;14206;50.202;10.948;2023-01-26T02:21:16;12.10;;;7.50;;
26540;SDS011;14206;50.202;10.948;2023-01-26T02:23:52;12.05;;;7.70;;
26540;SDS011;14206;50.202;10.948;2023-01-26T02:26:22;12.18;;;7.65;;
26540;SDS011;14206;50.202;10.948;2023-01-26T02:28:51;15.35;;;9.45;;
26540;SDS011;14206;50.202;10.948;2023-01-26T02:31:18;15.15;;;9.52;;
26540;SDS011;14206;50.202;10.948;2023-01-26T02:33:47;13.55;;;8.43;;
26540;SDS011;14206;50.202;10.948;2023-01-26T02:36:25;14.57;;;8.30;;
26540;SDS011;14206;50.202;10.948;2023-01-26T02:38:59;11.07;;;6.93;;
26540;SDS011;14206;50.202;10.948;2023-01-26T02:41:38;11.02;;;6.57;;
26540;SDS011;14206;50.202;10.948;2023-01-26T02:44:24;13.25;;;7.85;;
26540;SDS011;14206;50.202;10.948;2023-01-26T02:46:52;11.75;;;7.22;;
26540;SDS011;14206;50.202;10.948;2023-01-26T02:49:19;12.95;;;7.65;;
26540;SDS011;14206;50.202;10.948;2023-01-26T02:52:06;12.15;;;7.60;;
26540;SDS011;14206;50.202;10.948;2023-01-26T02:54:43;12.88;;;7.93;;
26540;SDS011;14206;50.202;10.948;2023-01-26T02:57:28;11.27;;;7.47;;
26540;SDS011;14206;50.202;10.948;2023-01-26T02:59:56;12.68;;;7.72;;
26540;SDS011;14206;50.202;10.948;2023-01-26T03:02:23;11.32;;;7.60;;
26540;SDS011;14206;50.202;10.948;2023-01-26T03:04:50;12.77;;;7.82;;
26540;SDS011;14206;50.202;10.948;2023-01-26T03:07:17;13.38;;;7.95;;
26540;SDS011;14206;50.202;10.948;2023-01-26T03:09:44;11.57;;;7.20;;
26540;SDS011;14206;50.202;10.948;2023-01-26T03:12:11;12.80;;;7.85;;
26540;SDS011;14206;50.202;10.948;2023-01-26T03:14:38;14.10;;;8.40;;
26540;SDS011;14206;50.202;10.948;2023-01-26T03:17:05;12.95;;;7.82;;
26540;SDS011;14206;50.202;10.948;2023-01-26T03:19:32;11.70;;;7.00;;
26540;SDS011;14206;50.202;10.948;2023-01-26T03:22:17;11.77;;;7.22;;
26540;SDS011;14206;50.202;10.948;2023-01-26T03:25:03;9.90;;;6.35;;
26540;SDS011;14206;50.202;10.948;2023-01-26T03:27:51;12.43;;;7.97;;
26540;SDS011;14206;50.202;10.948;2023-01-26T03:30:18;13.15;;;8.52;;
26540;SDS011;14206;50.202;10.948;2023-01-26T03:32:46;13.68;;;8.20;;
26540;SDS011;14206;50.202;10.948;2023-01-26T03:35:15;13.27;;;8.23;;
26540;SDS011;14206;50.202;10.948;2023-01-26T03:37:48;13.20;;;7.65;;
26540;SDS011;14206;50.202;10.948;2023-01-26T03:40:40;13.82;;;7.95;;
26540;SDS011;14206;50.202;10.948;2023-01-26T03:43:25;11.05;;;6.82;;
26540;SDS011;14206;50.202;10.948;2023-01-26T03:46:10;11.90;;;6.82;;
26540;SDS011;14206;50.202;10.948;2023-01-26T03:48:56;13.43;;;7.15;;
26540;SDS011;14206;50.202;10.948;2023-01-26T03:51:41;11.50;;;6.82;;
26540;SDS011;14206;50.202;10.948;2023-01-26T03:54:27;11.30;;;6.72;;
26540;SDS011;14206;50.202;10.948;2023-01-26T03:57:14;11.98;;;7.28;;
26540;SDS011;14206;50.202;10.948;2023-01-26T03:59:42;10.55;;;7.03;;
26540;SDS011;14206;50.202;10.948;2023-01-26T04:02:14;11.20;;;6.75;;
26540;SDS011;14206;50.202;10.948;2023-01-26T04:05:00;12.85;;;7.32;;
26540;SDS011;14206;50.202;10.948;2023-01-26T04:07:50;11.88;;;7.50;;
26540;SDS011;14206;50.202;10.948;2023-01-26T04:10:36;11.80;;;6.88;;
26540;SDS011;14206;50.202;10.948;2023-01-26T04:13:03;12.05;;;7.40;;
26540;SDS011;14206;50.202;10.948;2023-01-26T04:15:56;12.13;;;7.25;;
26540;SDS011;14206;50.202;10.948;2023-01-26T04:18:41;12.38;;;7.60;;
26540;SDS011;14206;50.202;10.948;2023-01-26T04:21:30;10.43;;;6.63;;
26540;SDS011;14206;50.202;10.948;2023-01-26T04:24:03;10.45;;;6.72;;
26540;SDS011;14206;50.202;10.948;2023-01-26T04:26:43;10.48;;;6.60;;
26540;SDS011;14206;50.202;10.948;2023-01-26T04:29:15;11.02;;;6.57;;
26540;SDS011;14206;50.202;10.948;2023-01-26T04:31:44;11.60;;;7.20;;
26540;SDS011;14206;50.202;10.948;2023-01-26T04:34:14;10.75;;;6.50;;
26540;SDS011;14206;50.202;10.948;2023-01-26T04:36:42;9.70;;;6.07;;
26540;SDS011;14206;50.202;10.948;2023-01-26T04:39:09;10.20;;;6.18;;
26540;SDS011;14206;50.202;10.948;2023-01-26T04:41:40;12.32;;;7.38;;
26540;SDS011;14206;50.202;10.948;2023-01-26T04:44:10;14.18;;;8.27;;
26540;SDS011;14206;50.202;10.948;2023-01-26T04:46:37;12.65;;;7.45;;
26540;SDS011;14206;50.202;10.948;2023-01-26T04:49:04;11.05;;;7.05;;
26540;SDS011;14206;50.202;10.948;2023-01-26T04:51:32;11.05;;;6.72;;
26540;SDS011;14206;50.202;10.948;2023-01-26T04:53:59;11.07;;;6.75;;
26540;SDS011;14206;50.202;10.948;2023-01-26T04:56:28;13.45;;;7.50;;
26540;SDS011;14206;50.202;10.948;2023-01-26T04:58:58;12.18;;;7.25;;
26540;SDS011;14206;50.202;10.948;2023-01-26T05:01:33;12.63;;;7.25;;
26540;SDS011;14206;50.202;10.948;2023-01-26T05:04:03;13.27;;;7.63;;
26540;SDS011;14206;50.202;10.948;2023-01-26T05:06:34;10.85;;;6.35;;
26540;SDS011;14206;50.202;10.948;2023-01-26T05:09:01;11.98;;;6.68;;
26540;SDS011;14206;50.202;10.948;2023-01-26T05:11:30;9.07;;;6.15;;
26540;SDS011;14206;50.202;10.948;2023-01-26T05:14:14;11.02;;;6.38;;
26540;SDS011;14206;50.202;10.948;2023-01-26T05:17:04;11.70;;;6.40;;
26540;SDS011;14206;50.202;10.948;2023-01-26T05:19:52;10.95;;;6.28;;
26540;SDS011;14206;50.202;10.948;2023-01-26T05:22:38;10.55;;;6.60;;
26540;SDS011;14206;50.202;10.948;2023-01-26T05:25:25;12.02;;;7.05;;
26540;SDS011;14206;50.202;10.948;2023-01-26T05:28:00;10.98;;;6.50;;
26540;SDS011;14206;50.202;10.948;2023-01-26T05:30:27;11.88;;;6.65;;
26540;SDS011;14206;50.202;10.948;2023-01-26T05:33:05;10.95;;;6.85;;
26540;SDS011;14206;50.202;10.948;2023-01-26T05:35:33;12.23;;;7.18;;
26540;SDS011;14206;50.202;10.948;2023-01-26T05:38:03;11.35;;;7.10;;
26540;SDS011;14206;50.202;10.948;2023-01-26T05:40:31;12.45;;;6.93;;
26540;SDS011;14206;50.202;10.948;2023-01-26T05:42:58;12.90;;;7.35;;
26540;SDS011;14206;50.202;10.948;2023-01-26T05:45:44;13.45;;;7.13;;
26540;SDS011;14206;50.202;10.948;2023-01-26T05:48:13;14.23;;;8.15;;
26540;SDS011;14206;50.202;10.948;2023-01-26T05:50:39;14.15;;;7.68;;
26540;SDS011;14206;50.202;10.948;2023-01-26T05:53:12;14.90;;;8.63;;
26540;SDS011;14206;50.202;10.948;2023-01-26T05:55:40;15.00;;;8.60;;
26540;SDS011;14206;50.202;10.948;2023-01-26T05:58:08;12.90;;;7.20;;
26540;SDS011;14206;50.202;10.948;2023-01-26T06:00:35;12.43;;;7.47;;
26540;SDS011;14206;50.202;10.948;2023-01-26T06:03:07;13.07;;;7.22;;
26540;SDS011;14206;50.202;10.948;2023-01-26T06:05:35;11.13;;;6.88;;
26540;SDS011;14206;50.202;10.948;2023-01-26T06:08:11;12.57;;;6.95;;
26540;SDS011;14206;50.202;10.948;2023-01-26T06:11:07;11.43;;;6.65;;
26540;SDS011;14206;50.202;10.948;2023-01-26T06:13:44;12.10;;;6.75;;
26540;SDS011;14206;50.202;10.948;2023-01-26T06:16:25;12.77;;;7.55;;
26540;SDS011;14206;50.202;10.948;2023-01-26T06:18:53;13.73;;;7.53;;
26540;SDS011;14206;50.202;10.948;2023-01-26T06:21:20;12.93;;;6.97;;
26540;SDS011;14206;50.202;10.948;2023-01-26T06:23:46;13.48;;;7.43;;
26540;SDS011;14206;50.202;10.948;2023-01-26T06:26:13;12.07;;;7.22;;
26540;SDS011;14206;50.202;10.948;2023-01-26T06:28:41;12.27;;;7.13;;
26540;SDS011;14206;50.202;10.948;2023-01-26T06:31:08;15.00;;;7.55;;
26540;SDS011;14206;50.202;10.948;2023-01-26T06:33:39;11.68;;;6.90;;
26540;SDS011;14206;50.202;10.948;2023-01-26T06:36:08;10.60;;;6.63;;
26540;SDS011;14206;50.202;10.948;2023-01-26T06:38:37;11.43;;;6.53;;
26540;SDS011;14206;50.202;10.948;2023-01-26T06:41:09;11.98;;;6.90;;
26540;SDS011;14206;50.202;10.948;2023-01-26T06:43:36;11.93;;;7.28;;
26540;SDS011;14206;50.202;10.948;2023-01-26T06:46:03;12.38;;;6.90;;
26540;SDS011;14206;50.202;10.948;2023-01-26T06:48:33;14.20;;;7.22;;
26540;SDS011;14206;50.202;10.948;2023-01-26T06:53:55;14.38;;;7.07;;
26540;SDS011;14206;50.202;10.948;2023-01-26T06:59:17;13.18;;;6.68;;
26540;SDS011;14206;50.202;10.948;2023-01-26T07:01:53;14.95;;;7.82;;
26540;SDS011;14206;50.202;10.948;2023-01-26T07:04:20;12.77;;;7.07;;
26540;SDS011;14206;50.202;10.948;2023-01-26T07:06:51;12.85;;;7.20;;
26540;SDS011;14206;50.202;10.948;2023-01-26T07:09:18;14.48;;;7.53;;
26540;SDS011;14206;50.202;10.948;2023-01-26T07:11:45;12.90;;;7.20;;
26540;SDS011;14206;50.202;10.948;2023-01-26T07:14:12;13.23;;;7.30;;
26540;SDS011;14206;50.202;10.948;2023-01-26T07:16:38;13.82;;;7.47;;
26540;SDS011;14206;50.202;10.948;2023-01-26T07:19:05;14.93;;;7.80;;
26540;SDS011;14206;50.202;10.948;2023-01-26T07:21:33;14.63;;;8.20;;
26540;SDS011;14206;50.202;10.948;2023-01-26T07:24:01;11.55;;;6.53;;
26540;SDS011;14206;50.202;10.948;2023-01-26T07:26:28;13.18;;;7.10;;
26540;SDS011;14206;50.202;10.948;2023-01-26T07:28:54;10.98;;;6.25;;
26540;SDS011;14206;50.202;10.948;2023-01-26T07:31:21;13.32;;;7.50;;
26540;SDS011;14206;50.202;10.948;2023-01-26T07:33:48;13.38;;;7.35;;
26540;SDS011;14206;50.202;10.948;2023-01-26T07:36:15;14.10;;;7.95;;
26540;SDS011;14206;50.202;10.948;2023-01-26T07:38:42;13.73;;;8.18;;
26540;SDS011;14206;50.202;10.948;2023-01-26T07:41:10;15.48;;;7.88;;
26540;SDS011;14206;50.202;10.948;2023-01-26T07:43:38;16.00;;;8.60;;
26540;SDS011;14206;50.202;10.948;2023-01-26T07:46:07;14.85;;;9.10;;
26540;SDS011;14206;50.202;10.948;2023-01-26T07:48:35;17.15;;;8.95;;
26540;SDS011;14206;50.202;10.948;2023-01-26T07:51:03;17.58;;;9.10;;
26540;SDS011;14206;50.202;10.948;2023-01-26T07:53:30;19.88;;;10.23;;
26540;SDS011;14206;50.202;10.948;2023-01-26T07:58:34;17.63;;;8.98;;
26540;SDS011;14206;50.202;10.948;2023-01-26T08:01:19;17.40;;;9.30;;
26540;SDS011;14206;50.202;10.948;2023-01-26T08:03:50;14.52;;;7.93;;
26540;SDS011;14206;50.202;10.948;2023-01-26T08:06:19;15.45;;;8.05;;
26540;SDS011;14206;50.202;10.948;2023-01-26T08:08:47;15.40;;;7.55;;
26540;SDS011;14206;50.202;10.948;2023-01-26T08:11:18;15.05;;;7.90;;
26540;SDS011;14206;50.202;10.948;2023-01-26T08:13:47;14.05;;;7.22;;
26540;SDS011;14206;50.202;10.948;2023-01-26T08:16:15;14.95;;;7.90;;
26540;SDS011;14206;50.202;10.948;2023-01-26T08:18:42;13.07;;;7.22;;
26540;SDS011;14206;50.202;10.948;2023-01-26T08:21:11;13.18;;;7.70;;
26540;SDS011;14206;50.202;10.948;2023-01-26T08:23:39;13.32;;;7.38;;
26540;SDS011;14206;50.202;10.948;2023-01-26T08:26:10;10.95;;;6.20;;
26540;SDS011;14206;50.202;10.948;2023-01-26T08:28:38;13.65;;;7.53;;
26540;SDS011;14206;50.202;10.948;2023-01-26T08:31:09;13.85;;;7.60;;
26540;SDS011;14206;50.202;10.948;2023-01-26T08:33:39;13.77;;;7.65;;
26540;SDS011;14206;50.202;10.948;2023-01-26T08:36:08;13.30;;;6.97;;
26540;SDS011;14206;50.202;10.948;2023-01-26T08:38:37;10.98;;;6.65;;
26540;SDS011;14206;50.202;10.948;2023-01-26T08:41:04;10.55;;;6.18;;
26540;SDS011;14206;50.202;10.948;2023-01-26T08:43:32;9.05;;;5.47;;
26540;SDS011;14206;50.202;10.948;2023-01-26T08:45:59;9.27;;;5.32;;
26540;SDS011;14206;50.202;10.948;2023-01-26T08:48:26;9.75;;;5.53;;
26540;SDS011;14206;50.202;10.948;2023-01-26T08:50:55;12.85;;;6.72;;
26540;SDS011;14206;50.202;10.948;2023-01-26T08:53:23;11.07;;;6.22;;
26540;SDS011;14206;50.202;10.948;2023-01-26T08:55:51;10.43;;;5.95;;
26540;SDS011;14206;50.202;10.948;2023-01-26T08:58:17;9.15;;;5.00;;
26540;SDS011;14206;50.202;10.948;2023-01-26T09:00:45;12.40;;;6.50;;
26540;SDS011;14206;50.202;10.948;2023-01-26T09:03:12;9.10;;;5.30;;
26540;SDS011;14206;50.202;10.948;2023-01-26T09:05:39;9.48;;;5.38;;
26540;SDS011;14206;50.202;10.948;2023-01-26T09:08:07;11.50;;;6.03;;
26540;SDS011;14206;50.202;10.948;2023-01-26T09:10:35;11.68;;;6.68;;
26540;SDS011;14206;50.202;10.948;2023-01-26T09:13:03;9.77;;;6.00;;
26540;SDS011;14206;50.202;10.948;2023-01-26T09:15:30;11.38;;;6.13;;
26540;SDS011;14206;50.202;10.948;2023-01-26T09:17:57;10.80;;;6.22;;
26540;SDS011;14206;50.202;10.948;2023-01-26T09:20:26;9.18;;;5.80;;
26540;SDS011;14206;50.202;10.948;2023-01-26T09:22:53;9.00;;;5.93;;
26540;SDS011;14206;50.202;10.948;2023-01-26T09:25:20;9.02;;;5.00;;
26540;SDS011;14206;50.202;10.948;2023-01-26T09:27:47;9.45;;;5.30;;
26540;SDS011;14206;50.202;10.948;2023-01-26T09:30:14;9.10;;;5.43;;
26540;SDS011;14206;50.202;10.948;2023-01-26T09:32:41;8.35;;;4.90;;
26540;SDS011;14206;50.202;10.948;2023-01-26T09:35:08;8.60;;;4.85;;
26540;SDS011;14206;50.202;10.948;2023-01-26T09:37:39;6.90;;;4.30;;
26540;SDS011;14206;50.202;10.948;2023-01-26T09:40:12;9.60;;;5.40;;
26540;SDS011;14206;50.202;10.948;2023-01-26T09:43:04;8.30;;;5.35;;
26540;SDS011;14206;50.202;10.948;2023-01-26T09:45:45;8.48;;;4.75;;
26540;SDS011;14206;50.202;10.948;2023-01-26T09:48:42;7.43;;;4.57;;
26540;SDS011;14206;50.202;10.948;2023-01-26T09:51:23;10.50;;;6.03;;
26540;SDS011;14206;50.202;10.948;2023-01-26T09:53:52;9.38;;;5.60;;
26540;SDS011;14206;50.202;10.948;2023-01-26T09:56:24;10.02;;;5.70;;
26540;SDS011;14206;50.202;10.948;2023-01-26T09:58:59;9.52;;;4.97;;
26540;SDS011;14206;50.202;10.948;2023-01-26T10:01:32;10.30;;;5.88;;
26540;SDS011;14206;50.202;10.948;2023-01-26T10:04:28;8.10;;;4.80;;
26540;SDS011;14206;50.202;10.948;2023-01-26T10:07:04;8.95;;;5.30;;
26540;SDS011;14206;50.202;10.948;2023-01-26T10:09:48;10.45;;;5.80;;
26540;SDS011;14206;50.202;10.948;2023-01-26T10:12:18;11.27;;;5.95;;
26540;SDS011;14206;50.202;10.948;2023-01-26T10:15:02;11.50;;;6.63;;
26540;SDS011;14206;50.202;10.948;2023-01-26T10:17:34;9.80;;;5.93;;
26540;SDS011;14206;50.202;10.948;2023-01-26T10:22:37;10.48;;;6.22;;
26540;SDS011;14206;50.202;10.948;2023-01-26T10:25:11;12.23;;;6.50;;
26540;SDS011;14206;50.202;10.948;2023-01-26T10:27:41;10.02;;;5.82;;
26540;SDS011;14206;50.202;10.948;2023-01-26T10:30:12;7.50;;;4.68;;
26540;SDS011;14206;50.202;10.948;2023-01-26T10:32:42;8.15;;;4.90;;
26540;SDS011;14206;50.202;10.948;2023-01-26T10:35:15;8.43;;;4.85;;
26540;SDS011;14206;50.202;10.948;2023-01-26T10:37:43;8.70;;;5.35;;
26540;SDS011;14206;50.202;10.948;2023-01-26T10:40:11;8.60;;;5.10;;
26540;SDS011;14206;50.202;10.948;2023-01-26T10:42:38;8.40;;;4.53;;
26540;SDS011;14206;50.202;10.948;2023-01-26T10:45:22;7.18;;;4.30;;
26540;SDS011;14206;50.202;10.948;2023-01-26T10:48:02;7.25;;;4.30;;
26540;SDS011;14206;50.202;10.948;2023-01-26T10:50:29;5.90;;;4.07;;
26540;SDS011;14206;50.202;10.948;2023-01-26T10:52:58;9.35;;;5.20;;
26540;SDS011;14206;50.202;10.948;2023-01-26T10:55:26;6.57;;;4.30;;
26540;SDS011;14206;50.202;10.948;2023-01-26T10:57:55;7.78;;;4.57;;
26540;SDS011;14206;50.202;10.948;2023-01-26T11:00:26;8.45;;;4.68;;
26540;SDS011;14206;50.202;10.948;2023-01-26T11:05:38;6.93;;;4.40;;
26540;SDS011;14206;50.202;10.948;2023-01-26T11:08:08;7.88;;;4.53;;
26540;SDS011;14206;50.202;10.948;2023-01-26T11:11:00;7.53;;;4.60;;
26540;SDS011;14206;50.202;10.948;2023-01-26T11:13:29;7.45;;;4.60;;
26540;SDS011;14206;50.202;10.948;2023-01-26T11:16:03;11.45;;;6.38;;
26540;SDS011;14206;50.202;10.948;2023-01-26T11:21:48;6.55;;;4.47;;
26540;SDS011;14206;50.202;10.948;2023-01-26T11:32:56;6.80;;;3.65;;
26540;SDS011;14206;50.202;10.948;2023-01-26T11:40:49;6.05;;;3.88;;
26540;SDS011;14206;50.202;10.948;2023-01-26T11:55:04;8.80;;;5.40;;
26540;SDS011;14206;50.202;10.948;2023-01-26T11:58:18;8.65;;;5.45;;
26540;SDS011;14206;50.202;10.948;2023-01-26T12:01:05;9.73;;;5.43;;
26540;SDS011;14206;50.202;10.948;2023-01-26T12:06:25;10.52;;;5.97;;
26540;SDS011;14206;50.202;10.948;2023-01-26T12:09:02;8.55;;;5.63;;
26540;SDS011;14206;50.202;10.948;2023-01-26T12:12:01;8.75;;;5.28;;
26540;SDS011;14206;50.202;10.948;2023-01-26T12:14:53;7.90;;;4.75;;
26540;SDS011;14206;50.202;10.948;2023-01-26T12:17:33;8.30;;;4.95;;
26540;SDS011;14206;50.202;10.948;2023-01-26T12:25:48;8.07;;;4.72;;
26540;SDS011;14206;50.202;10.948;2023-01-26T12:28:28;9.55;;;4.78;;
26540;SDS011;14206;50.202;10.948;2023-01-26T12:33:38;8.07;;;4.95;;
26540;SDS011;14206;50.202;10.948;2023-01-26T12:41:30;10.75;;;6.20;;
26540;SDS011;14206;50.202;10.948;2023-01-26T12:44:35;9.30;;;5.53;;
26540;SDS011;14206;50.202;10.948;2023-01-26T12:47:08;11.57;;;6.63;;
26540;SDS011;14206;50.202;10.948;2023-01-26T12:49:45;9.48;;;6.53;;
26540;SDS011;14206;50.202;10.948;2023-01-26T12:52:37;11.00;;;6.30;;
26540;SDS011;14206;50.202;10.948;2023-01-26T12:55:17;10.27;;;6.03;;
26540;SDS011;14206;50.202;10.948;2023-01-26T12:58:13;9.23;;;5.28;;
26540;SDS011;14206;50.202;10.948;2023-01-26T13:00:57;10.68;;;6.25;;
26540;SDS011;14206;50.202;10.948;2023-01-26T13:03:36;9.55;;;5.68;;
26540;SDS011;14206;50.202;10.948;2023-01-26T13:11:05;11.25;;;5.95;;
26540;SDS011;14206;50.202;10.948;2023-01-26T13:13:34;10.90;;;5.40;;
26540;SDS011;14206;50.202;10.948;2023-01-26T13:18:56;9.57;;;5.68;;
26540;SDS011;14206;50.202;10.948;2023-01-26T13:26:43;9.10;;;5.70;;
26540;SDS011;14206;50.202;10.948;2023-01-26T13:31:50;10.48;;;6.05;;
26540;SDS011;14206;50.202;10.948;2023-01-26T13:37:04;11.52;;;6.60;;
26540;SDS011;14206;50.202;10.948;2023-01-26T13:39:54;10.17;;;6.47;;
26540;SDS011;14206;50.202;10.948;2023-01-26T13:42:32;11.95;;;7.32;;
26540;SDS011;14206;50.202;10.948;2023-01-26T13:45:07;10.57;;;6.43;;
26540;SDS011;14206;50.202;10.948;2023-01-26T13:47:43;10.75;;;6.30;;
26540;SDS011;14206;50.202;10.948;2023-01-26T13:50:29;9.57;;;5.70;;
26540;SDS011;14206;50.202;10.948;2023-01-26T13:55:26;7.60;;;5.38;;
26540;SDS011;14206;50.202;10.948;2023-01-26T13:58:13;10.20;;;5.88;;
26540;SDS011;14206;50.202;10.948;2023-01-26T14:00:42;9.95;;;5.82;;
26540;SDS011;14206;50.202;10.948;2023-01-26T14:03:23;10.48;;;6.13;;
26540;SDS011;14206;50.202;10.948;2023-01-26T14:05:54;12.00;;;7.20;;
26540;SDS011;14206;50.202;10.948;2023-01-26T14:08:24;10.37;;;6.13;;
26540;SDS011;14206;50.202;10.948;2023-01-26T14:10:51;9.43;;;5.60;;
26540;SDS011;14206;50.202;10.948;2023-01-26T14:13:20;9.15;;;5.80;;
26540;SDS011;14206;50.202;10.948;2023-01-26T14:15:59;9.80;;;6.20;;
26540;SDS011;14206;50.202;10.948;2023-01-26T14:18:27;10.65;;;5.78;;
26540;SDS011;14206;50.202;10.948;2023-01-26T14:20:58;9.43;;;5.85;;
26540;SDS011;14206;50.202;10.948;2023-01-26T14:23:39;10.55;;;6.20;;
26540;SDS011;14206;50.202;10.948;2023-01-26T14:26:11;10.20;;;5.85;;
26540;SDS011;14206;50.202;10.948;2023-01-26T14:28:46;10.48;;;5.93;;
26540;SDS011;14206;50.202;10.948;2023-01-26T14:33:40;9.23;;;5.75;;
26540;SDS011;14206;50.202;10.948;2023-01-26T14:36:14;10.05;;;6.03;;
26540;SDS011;14206;50.202;10.948;2023-01-26T14:38:43;10.57;;;6.50;;
26540;SDS011;14206;50.202;10.948;2023-01-26T14:41:15;11.25;;;6.68;;
26540;SDS011;14206;50.202;10.948;2023-01-26T14:43:59;9.80;;;6.38;;
26540;SDS011;14206;50.202;10.948;2023-01-26T14:46:36;8.25;;;5.18;;
26540;SDS011;14206;50.202;10.948;2023-01-26T14:49:14;8.50;;;5.25;;
26540;SDS011;14206;50.202;10.948;2023-01-26T14:52:00;9.48;;;5.53;;
26540;SDS011;14206;50.202;10.948;2023-01-26T14:54:31;8.13;;;4.97;;
26540;SDS011;14206;50.202;10.948;2023-01-26T14:57:04;9.00;;;5.50;;
26540;SDS011;14206;50.202;10.948;2023-01-26T14:59:35;8.85;;;5.43;;
26540;SDS011;14206;50.202;10.948;2023-01-26T15:02:15;8.43;;;5.40;;
26540;SDS011;14206;50.202;10.948;2023-01-26T15:04:54;8.25;;;5.30;;
26540;SDS011;14206;50.202;10.948;2023-01-26T15:15:37;10.15;;;6.18;;
26540;SDS011;14206;50.202;10.948;2023-01-26T15:23:21;11.85;;;7.13;;
26540;SDS011;14206;50.202;10.948;2023-01-26T15:25:49;13.38;;;7.10;;
26540;SDS011;14206;50.202;10.948;2023-01-26T15:28:16;16.08;;;9.15;;
26540;SDS011;14206;50.202;10.948;2023-01-26T15:30:46;16.30;;;9.27;;
26540;SDS011;14206;50.202;10.948;2023-01-26T15:36:05;12.77;;;7.85;;
26540;SDS011;14206;50.202;10.948;2023-01-26T15:38:46;13.15;;;8.15;;
26540;SDS011;14206;50.202;10.948;2023-01-26T15:41:17;12.15;;;7.72;;
26540;SDS011;14206;50.202;10.948;2023-01-26T15:43:44;11.45;;;7.18;;
26540;SDS011;14206;50.202;10.948;2023-01-26T15:46:11;11.68;;;7.22;;
26540;SDS011;14206;50.202;10.948;2023-01-26T15:48:38;10.98;;;5.97;;
26540;SDS011;14206;50.202;10.948;2023-01-26T15:51:09;10.32;;;6.63;;
26540;SDS011;14206;50.202;10.948;2023-01-26T15:53:38;9.60;;;6.10;;
26540;SDS011;14206;50.202;10.948;2023-01-26T15:56:05;12.07;;;7.05;;
26540;SDS011;14206;50.202;10.948;2023-01-26T15:58:39;11.93;;;6.82;;
26540;SDS011;14206;50.202;10.948;2023-01-26T16:01:09;9.13;;;6.40;;
26540;SDS011;14206;50.202;10.948;2023-01-26T16:03:40;12.65;;;7.22;;
26540;SDS011;14206;50.202;10.948;2023-01-26T16:06:11;11.15;;;7.00;;
26540;SDS011;14206;50.202;10.948;2023-01-26T16:08:52;12.10;;;7.30;;
26540;SDS011;14206;50.202;10.948;2023-01-26T16:11:20;11.63;;;7.22;;
26540;SDS011;14206;50.202;10.948;2023-01-26T16:13:51;11.52;;;7.03;;
26540;SDS011;14206;50.202;10.948;2023-01-26T16:16:29;10.15;;;6.70;;
26540;SDS011;14206;50.202;10.948;2023-01-26T16:18:57;12.18;;;7.20;;
26540;SDS011;14206;50.202;10.948;2023-01-26T16:21:25;10.02;;;6.75;;
26540;SDS011;14206;50.202;10.948;2023-01-26T16:23:59;11.05;;;6.65;;
26540;SDS011;14206;50.202;10.948;2023-01-26T16:26:27;10.68;;;6.82;;
26540;SDS011;14206;50.202;10.948;2023-01-26T16:28:55;10.77;;;6.82;;
26540;SDS011;14206;50.202;10.948;2023-01-26T16:31:23;10.30;;;5.97;;
26540;SDS011;14206;50.202;10.948;2023-01-26T16:33:51;11.10;;;6.38;;
26540;SDS011;14206;50.202;10.948;2023-01-26T16:36:19;11.07;;;6.55;;
26540;SDS011;14206;50.202;10.948;2023-01-26T16:38:46;13.18;;;7.18;;